Time;durP1;ratioP1;P1;durP2;ratioP2;P2;SDS_P1;SDS_P2;PMS_P1;PMS_P2;Temp;Humidity;BMP_temperature;BMP_pressure;BME280_temperature;BME280_humidity;BME280_pressure;Samples;Min_cycle;Max_cycle;Signal;HPM_P1;HPM_P2
2023/08/06 00:00:15;;;;;;;;;;;;;;;22.84;43.21;96552.44;4150521;28;5808;-66
2023/08/06 00:02:17;;;;;;;;;;;;;;;22.84;43.16;96557.84;4146190;28;5672;-65
2023/08/06 00:04:20;;;;;;;;;;;;;;;22.86;43.18;96552.97;4142594;28;6456;-65
2023/08/06 00:06:23;;;;;;;;;;;;;;;22.84;42.98;96536.28;4142976;28;5770;-66
2023/08/06 00:08:26;;;;;;;;;;;;;;;22.85;43.18;96545.97;4150463;28;5770;-65
2023/08/06 00:10:30;;;;;;;;;;;;;;;22.85;42.74;96540.59;4141346;28;5871;-65
2023/08/06 00:12:33;;;;;;;;;;;;;;;22.82;42.61;96533.03;4145826;28;5869;-62
2023/08/06 00:14:36;;;;;;;;;;;;;;;22.80;42.56;96524.41;4145535;28;5762;-63
2023/08/06 00:16:39;;;;;;;;;;;;;;;22.79;42.97;96536.28;4140228;28;5993;-64
2023/08/06 00:18:42;;;;;;;;;;;;;;;22.77;43.14;96531.19;4150488;28;5874;-64
2023/08/06 00:20:45;;;;;;;;;;;;;;;22.79;43.07;96525.50;4142090;28;6479;-64
2023/08/06 00:22:48;;;;;;;;;;;;;;;22.79;43.28;96530.91;4149077;28;5784;-66
2023/08/06 00:24:52;;;;;;;;;;;;;;;22.77;42.90;96519.59;4141384;28;7831;-64
2023/08/06 00:26:56;;;;;;;;;;;;;;;22.76;43.31;96518.75;4137281;28;5780;-63
2023/08/06 00:28:59;;;;;;;;;;;;;;;22.72;42.86;96512.31;4142803;28;5812;-65
2023/08/06 00:31:02;;;;;;;;;;;;;;;22.73;42.66;96513.13;4139547;28;5779;-64
2023/08/06 00:33:05;;;;;;;;;;;;;;;22.73;43.23;96521.22;4145230;28;5776;-65
2023/08/06 00:35:08;;;;;;;;;;;;;;;22.73;42.64;96531.97;4148492;28;5789;-64
2023/08/06 00:37:11;;;;;;;;;;;;;;;22.73;42.90;96529.28;4145167;28;7765;-64
2023/08/06 00:39:14;;;;;;;;;;;;;;;22.71;43.02;96528.78;4145329;28;5240;-64
2023/08/06 00:41:17;;;;;;;;;;;;;;;22.69;43.21;96509.38;4137466;28;5825;-64
2023/08/06 00:43:20;;;;;;;;;;;;;;;22.70;43.11;96521.78;4156683;28;6582;-64
2023/08/06 00:45:23;;;;;;;;;;;;;;;22.69;42.73;96525.56;4145208;28;5743;-64
2023/08/06 00:47:26;;;;;;;;;;;;;;;22.70;43.07;96521.78;4145047;28;5774;-64
2023/08/06 00:49:29;;;;;;;;;;;;;;;22.70;42.99;96519.88;4136759;28;5851;-64
2023/08/06 00:51:36;;;;;;;;;;;;;;;22.69;43.07;96525.56;4147157;28;5819;-64
2023/08/06 00:53:39;;;;;;;;;;;;;;;22.70;42.79;96529.84;4150080;28;5982;-63
2023/08/06 00:55:45;;;;;;;;;;;;;;;22.70;42.81;96513.69;4136691;28;5787;-63
2023/08/06 00:57:50;;;;;;;;;;;;;;;22.70;42.73;96519.06;4144822;28;5804;-63
2023/08/06 00:59:55;;;;;;;;;;;;;;;22.68;43.00;96524.75;4136885;28;5772;-64
2023/08/06 01:01:58;;;;;;;;;;;;;;;22.67;42.66;96518.56;4148908;28;5657;-64
2023/08/06 01:04:01;;;;;;;;;;;;;;;22.68;42.69;96522.06;4144795;28;5902;-63
2023/08/06 01:06:05;;;;;;;;;;;;;;;22.69;42.99;96523.66;4153053;28;5758;-64
2023/08/06 01:08:19;;;;;;;;;;;;;;;22.66;42.56;96513.44;4152643;28;5862;-64
2023/08/06 01:10:35;;;;;;;;;;;;;;;22.66;42.82;96516.13;4152948;28;5762;-63
2023/08/06 01:12:45;;;;;;;;;;;;;;;22.63;42.73;96514.78;4151145;28;5775;-64
2023/08/06 01:14:54;;;;;;;;;;;;;;;22.64;43.15;96512.88;4148409;28;5743;-64
2023/08/06 01:16:59;;;;;;;;;;;;;;;22.60;43.29;96498.38;4147681;28;5894;-64
2023/08/06 01:19:02;;;;;;;;;;;;;;;22.60;43.25;96522.63;4152575;28;5774;-65
2023/08/06 01:21:06;;;;;;;;;;;;;;;22.61;43.17;96518.84;4147043;28;7846;-64
2023/08/06 01:23:09;;;;;;;;;;;;;;;22.60;42.78;96518.03;4151934;28;5818;-64
2023/08/06 01:25:15;;;;;;;;;;;;;;;22.57;42.52;96510.50;4152815;28;5758;-64
2023/08/06 01:27:28;;;;;;;;;;;;;;;22.57;42.52;96507.00;4152419;28;5738;-64
2023/08/06 01:29:35;;;;;;;;;;;;;;;22.59;42.74;96513.72;4135858;28;5779;-64
2023/08/06 01:31:40;;;;;;;;;;;;;;;22.60;42.36;96520.72;4146974;28;5977;-64
2023/08/06 01:33:47;;;;;;;;;;;;;;;22.61;42.57;96513.44;4152490;28;5770;-64
2023/08/06 01:35:51;;;;;;;;;;;;;;;22.61;42.50;96513.44;4148371;28;5461;-64
2023/08/06 01:37:56;;;;;;;;;;;;;;;22.63;42.54;96501.31;4140680;28;5762;-64
2023/08/06 01:39:59;;;;;;;;;;;;;;;22.64;42.45;96508.31;4144321;28;5770;-64
2023/08/06 01:42:02;;;;;;;;;;;;;;;22.64;42.90;96508.31;4152129;28;5890;-64
2023/08/06 01:44:04;;;;;;;;;;;;;;;22.64;42.48;96502.13;4142993;28;5791;-64
2023/08/06 01:46:07;;;;;;;;;;;;;;;22.62;42.46;96493.50;4136182;28;5792;-64
2023/08/06 01:48:10;;;;;;;;;;;;;;;22.61;42.88;96503.47;4150916;28;5829;-64
2023/08/06 01:50:13;;;;;;;;;;;;;;;22.62;42.48;96502.41;4136392;28;5842;-64
2023/08/06 01:52:16;;;;;;;;;;;;;;;22.61;42.88;96503.47;4143025;28;5842;-64
2023/08/06 01:54:20;;;;;;;;;;;;;;;22.62;42.51;96513.16;4144067;28;6098;-64
2023/08/06 01:56:22;;;;;;;;;;;;;;;22.59;42.65;96508.34;4135928;28;5795;-64
2023/08/06 01:58:25;;;;;;;;;;;;;;;22.59;42.53;96507.53;4143834;28;5862;-64
2023/08/06 02:00:28;;;;;;;;;;;;;;;22.58;42.60;96512.13;4145403;28;5853;-64
2023/08/06 02:02:30;;;;;;;;;;;;;;;22.57;42.73;96515.91;4142107;28;6257;-64
2023/08/06 02:04:33;;;;;;;;;;;;;;;22.53;42.70;96522.09;4135717;28;5871;-64
2023/08/06 02:06:36;;;;;;;;;;;;;;;22.52;43.02;96524.00;4146116;28;5771;-64
2023/08/06 02:08:39;;;;;;;;;;;;;;;22.52;43.03;96531.25;4143572;28;5980;-64
2023/08/06 02:10:43;;;;;;;;;;;;;;;22.52;43.16;96528.56;4148794;28;5889;-64
2023/08/06 02:12:46;;;;;;;;;;;;;;;22.50;43.72;96536.94;4147392;28;5881;-64
2023/08/06 02:14:49;;;;;;;;;;;;;;;22.47;43.98;96532.09;4151818;28;5771;-64
2023/08/06 02:16:52;;;;;;;;;;;;;;;22.47;44.14;96537.50;4140531;28;5783;-64
2023/08/06 02:18:55;;;;;;;;;;;;;;;22.45;44.43;96545.03;4151848;28;5837;-64
2023/08/06 02:20:58;;;;;;;;;;;;;;;22.42;44.65;96531.28;4151798;28;5755;-64
2023/08/06 02:23:01;;;;;;;;;;;;;;;22.41;44.88;96533.19;4145769;28;5883;-64
2023/08/06 02:25:04;;;;;;;;;;;;;;;22.42;45.58;96526.72;4135458;28;5890;-64
2023/08/06 02:27:08;;;;;;;;;;;;;;;22.43;45.53;96522.97;4142095;28;5778;-64
2023/08/06 02:29:11;;;;;;;;;;;;;;;22.41;45.83;96517.03;4143514;28;5841;-64
2023/08/06 02:31:14;;;;;;;;;;;;;;;22.39;45.68;96521.88;4151647;28;5738;-64
2023/08/06 02:33:17;;;;;;;;;;;;;;;22.39;46.04;96524.56;4135139;28;5776;-64
2023/08/06 02:35:20;;;;;;;;;;;;;;;22.35;46.19;96524.34;4140039;28;5787;-64
2023/08/06 02:37:22;;;;;;;;;;;;;;;22.31;46.56;96525.13;4151151;28;5759;-64
2023/08/06 02:39:25;;;;;;;;;;;;;;;22.25;46.52;96518.97;4143370;28;5785;-64
2023/08/06 02:41:28;;;;;;;;;;;;;;;22.22;46.23;96519.53;4150059;28;5758;-64
2023/08/06 02:43:33;;;;;;;;;;;;;;;22.19;46.40;96511.97;4145152;28;5759;-64
2023/08/06 02:45:35;;;;;;;;;;;;;;;22.19;46.10;96519.25;4151437;28;5869;-64
2023/08/06 02:47:38;;;;;;;;;;;;;;;22.16;46.14;96504.47;4143217;28;5917;-64
2023/08/06 02:49:41;;;;;;;;;;;;;;;22.18;46.49;96509.56;4142996;28;5758;-64
2023/08/06 02:51:46;;;;;;;;;;;;;;;22.18;46.21;96513.06;4144241;28;5878;-64
2023/08/06 02:53:49;;;;;;;;;;;;;;;22.17;46.70;96516.84;4138866;28;6002;-64
2023/08/06 02:55:52;;;;;;;;;;;;;;;22.16;46.72;96514.41;4138593;28;5839;-64
2023/08/06 02:57:55;;;;;;;;;;;;;;;22.14;46.51;96516.59;4147879;28;5874;-65
2023/08/06 02:59:59;;;;;;;;;;;;;;;22.14;46.45;96511.19;4143054;28;5754;-64
2023/08/06 03:02:02;;;;;;;;;;;;;;;22.14;46.45;96516.59;4142965;28;5824;-64
2023/08/06 03:04:05;;;;;;;;;;;;;;;22.15;46.75;96518.19;4142983;28;5758;-65
2023/08/06 03:06:08;;;;;;;;;;;;;;;22.15;46.76;96524.38;4144604;28;6359;-65
2023/08/06 03:08:10;;;;;;;;;;;;;;;22.17;46.86;96521.41;4146215;28;5766;-64
2023/08/06 03:10:13;;;;;;;;;;;;;;;22.17;46.62;96524.09;4135435;28;5775;-64
2023/08/06 03:12:16;;;;;;;;;;;;;;;22.15;46.61;96521.69;4150571;28;5759;-65
2023/08/06 03:14:19;;;;;;;;;;;;;;;22.16;46.59;96528.69;4143066;28;5791;-64
2023/08/06 03:16:23;;;;;;;;;;;;;;;22.14;46.45;96520.09;4148886;28;5765;-64
2023/08/06 03:18:26;;;;;;;;;;;;;;;22.13;46.91;96510.41;4135683;28;5796;-64
2023/08/06 03:20:29;;;;;;;;;;;;;;;22.14;46.83;96511.19;4141237;28;5795;-64
2023/08/06 03:22:32;;;;;;;;;;;;;;;22.15;46.42;96512.81;4134328;28;5971;-65
2023/08/06 03:24:35;;;;;;;;;;;;;;;22.12;46.69;96519.56;4136009;28;5788;-64
2023/08/06 03:26:38;;;;;;;;;;;;;;;22.11;46.86;96517.94;4141410;28;5879;-65
2023/08/06 03:28:41;;;;;;;;;;;;;;;22.08;46.84;96532.75;4149889;28;5750;-64
2023/08/06 03:30:43;;;;;;;;;;;;;;;22.04;47.25;96528.94;4150124;28;5818;-64
2023/08/06 03:32:47;;;;;;;;;;;;;;;21.99;47.43;96525.47;4149799;28;5898;-65
2023/08/06 03:34:50;;;;;;;;;;;;;;;21.94;47.34;96528.16;4146937;28;5822;-65
2023/08/06 03:36:53;;;;;;;;;;;;;;;21.93;47.44;96526.56;4134813;28;5896;-64
2023/08/06 03:38:56;;;;;;;;;;;;;;;21.91;48.13;96524.13;4147809;28;5786;-64
2023/08/06 03:40:58;;;;;;;;;;;;;;;21.88;48.25;96546.22;4142963;28;5747;-64
2023/08/06 03:43:02;;;;;;;;;;;;;;;21.78;48.18;96540.84;4150782;28;5746;-64
2023/08/06 03:45:04;;;;;;;;;;;;;;;21.73;47.96;96522.00;4143814;28;5851;-64
2023/08/06 03:47:07;;;;;;;;;;;;;;;21.73;48.18;96543.50;4146180;28;5764;-65
2023/08/06 03:49:11;;;;;;;;;;;;;;;21.68;48.32;96532.78;4146105;28;5807;-64
2023/08/06 03:51:16;;;;;;;;;;;;;;;21.66;48.21;96540.31;4153882;28;5855;-64
2023/08/06 03:53:19;;;;;;;;;;;;;;;21.65;48.15;96538.69;4153771;28;5766;-64
2023/08/06 03:55:22;;;;;;;;;;;;;;;21.61;48.15;96534.91;4145730;28;5776;-64
2023/08/06 03:57:25;;;;;;;;;;;;;;;21.59;47.83;96532.50;4138596;28;5826;-64
2023/08/06 03:59:27;;;;;;;;;;;;;;;21.60;48.23;96531.41;4150517;28;5796;-64
2023/08/06 04:01:30;;;;;;;;;;;;;;;21.60;47.93;96544.06;4154026;28;5754;-64
2023/08/06 04:03:33;;;;;;;;;;;;;;;21.60;48.18;96546.75;4153434;28;5751;-64
2023/08/06 04:05:37;;;;;;;;;;;;;;;21.60;48.09;96549.44;4145150;28;5783;-64
2023/08/06 04:07:40;;;;;;;;;;;;;;;21.57;47.99;96548.09;4145821;28;5778;-65
2023/08/06 04:09:55;;;;;;;;;;;;;;;21.61;47.99;96545.66;4153962;28;6614;-64
2023/08/06 04:12:10;;;;;;;;;;;;;;;21.64;47.57;96542.47;4137662;28;5683;-64
2023/08/06 04:14:33;;;;;;;;;;;;;;;21.68;47.72;96546.22;4147445;28;5933;-64
2023/08/06 04:16:36;;;;;;;;;;;;;;;21.68;47.60;96540.84;4148551;28;5828;-65
2023/08/06 04:18:53;;;;;;;;;;;;;;;21.65;47.41;96531.44;4150122;28;5755;-64
2023/08/06 04:20:58;;;;;;;;;;;;;;;21.67;47.28;96528.47;4148413;28;5092;-64
2023/08/06 04:23:07;;;;;;;;;;;;;;;21.67;47.63;96528.47;4143052;28;5755;-64
2023/08/06 04:25:10;;;;;;;;;;;;;;;21.68;47.28;96551.59;4145798;28;5762;-66
2023/08/06 04:27:14;;;;;;;;;;;;;;;21.70;47.26;96544.06;4142476;28;5831;-65
2023/08/06 04:29:17;;;;;;;;;;;;;;;21.70;46.76;96544.06;4153381;28;5102;-66
2023/08/06 04:31:20;;;;;;;;;;;;;;;21.71;46.53;96551.06;4145411;28;5774;-66
2023/08/06 04:33:22;;;;;;;;;;;;;;;21.68;46.58;96551.59;4153329;28;6053;-68
2023/08/06 04:35:25;;;;;;;;;;;;;;;21.68;46.10;96556.97;4152694;28;5779;-65
2023/08/06 04:37:29;;;;;;;;;;;;;;;21.67;45.91;96552.69;4138121;28;5776;-64
2023/08/06 04:39:32;;;;;;;;;;;;;;;21.68;46.09;96557.78;4151736;28;5812;-64
2023/08/06 04:41:35;;;;;;;;;;;;;;;21.69;46.36;96558.59;4139441;28;5764;-64
2023/08/06 04:43:38;;;;;;;;;;;;;;;21.71;46.35;96564.50;4145436;28;5763;-64
2023/08/06 04:45:47;;;;;;;;;;;;;;;21.68;46.58;96559.66;4145262;28;6449;-64
2023/08/06 04:47:49;;;;;;;;;;;;;;;21.70;46.73;96571.78;4153314;28;5770;-64
2023/08/06 04:49:52;;;;;;;;;;;;;;;21.71;46.81;96567.19;4149757;28;5789;-64
2023/08/06 04:51:55;;;;;;;;;;;;;;;21.70;47.13;96561.00;4152893;28;5556;-63
2023/08/06 04:54:00;;;;;;;;;;;;;;;21.70;47.54;96565.59;4147422;28;7792;-65
2023/08/06 04:56:03;;;;;;;;;;;;;;;21.67;47.30;96560.75;4136718;28;5927;-64
2023/08/06 04:58:06;;;;;;;;;;;;;;;21.65;47.38;96566.41;4144082;28;5904;-64
2023/08/06 05:00:08;;;;;;;;;;;;;;;21.64;47.64;96582.81;4136864;28;6003;-64
2023/08/06 05:02:11;;;;;;;;;;;;;;;21.63;47.69;96578.50;4143804;28;6413;-63
2023/08/06 05:04:14;;;;;;;;;;;;;;;21.61;47.80;96594.09;4152766;28;5766;-64
2023/08/06 05:06:17;;;;;;;;;;;;;;;21.58;47.43;96598.13;4144691;28;5762;-64
2023/08/06 05:08:20;;;;;;;;;;;;;;;21.53;46.89;96600.84;4149485;28;5763;-64
2023/08/06 05:10:26;;;;;;;;;;;;;;;21.49;46.36;96597.84;4144833;28;5751;-64
2023/08/06 05:12:29;;;;;;;;;;;;;;;21.46;45.84;96601.06;4136617;28;5776;-64
2023/08/06 05:14:32;;;;;;;;;;;;;;;21.48;45.50;96611.56;4146437;28;5763;-64
2023/08/06 05:16:35;;;;;;;;;;;;;;;21.46;45.13;96611.84;4142541;28;5863;-63
2023/08/06 05:18:41;;;;;;;;;;;;;;;21.48;45.11;96622.31;4144699;28;5750;-65
2023/08/06 05:20:45;;;;;;;;;;;;;;;21.47;44.66;96615.31;4142066;28;5768;-64
2023/08/06 05:22:48;;;;;;;;;;;;;;;21.46;44.92;96609.16;4146735;28;5842;-64
2023/08/06 05:24:51;;;;;;;;;;;;;;;21.48;44.35;96609.69;4147981;28;5780;-65
2023/08/06 05:26:55;;;;;;;;;;;;;;;21.45;44.32;96612.91;4138958;28;5871;-65
2023/08/06 05:28:59;;;;;;;;;;;;;;;21.47;44.26;96628.78;4148861;28;5799;-65
2023/08/06 05:31:03;;;;;;;;;;;;;;;21.45;43.91;96623.66;4142200;28;5763;-65
2023/08/06 05:33:06;;;;;;;;;;;;;;;21.43;44.01;96622.31;4150990;28;5763;-65
2023/08/06 05:35:09;;;;;;;;;;;;;;;21.43;43.83;96633.88;4149662;28;5853;-65
2023/08/06 07:50:37;;;;;;;;;;;;;;;19.75;52.04;96788.47;4238406;27;10350;-61
2023/08/06 07:52:40;;;;;;;;;;;;;;;20.02;51.16;96783.13;4230403;27;5616;-63
2023/08/06 07:54:42;;;;;;;;;;;;;;;20.22;51.04;96785.19;4221682;28;5368;-62
2023/08/06 07:56:48;;;;;;;;;;;;;;;20.44;50.15;96798.56;4247288;27;5800;-63
2023/08/06 07:58:51;;;;;;;;;;;;;;;20.58;50.00;96796.28;4220143;28;5673;-63
2023/08/06 08:00:54;;;;;;;;;;;;;;;20.69;49.64;96807.91;4239425;27;6470;-63
2023/08/06 08:02:57;;;;;;;;;;;;;;;20.74;49.05;96811.47;4244150;27;5620;-63
2023/08/06 08:05:01;;;;;;;;;;;;;;;20.79;49.28;96818.72;4230146;28;6297;-63
2023/08/06 08:07:05;;;;;;;;;;;;;;;20.82;49.01;96807.47;4234168;27;5782;-64
2023/08/06 08:09:08;;;;;;;;;;;;;;;20.82;48.73;96813.66;4246280;27;5613;-64
2023/08/06 08:11:12;;;;;;;;;;;;;;;20.87;48.72;96816.38;4233328;27;5721;-63
2023/08/06 08:13:15;;;;;;;;;;;;;;;20.91;48.71;96828.22;4229419;28;5660;-64
2023/08/06 08:15:18;;;;;;;;;;;;;;;20.92;48.49;96824.47;4243391;27;5817;-63
2023/08/06 08:17:21;;;;;;;;;;;;;;;20.93;48.56;96831.47;4246972;27;5087;-62
2023/08/06 08:19:24;;;;;;;;;;;;;;;20.96;48.53;96823.97;4246888;27;5689;-62
2023/08/06 08:21:27;;;;;;;;;;;;;;;20.93;48.14;96834.16;4238582;27;5679;-63
2023/08/06 08:23:31;;;;;;;;;;;;;;;20.94;48.23;96835.75;4238628;27;5590;-63
2023/08/06 08:25:34;;;;;;;;;;;;;;;20.94;48.01;96837.63;4246788;27;5698;-62
2023/08/06 08:27:38;;;;;;;;;;;;;;;20.97;47.95;96836.34;4229846;27;5753;-63
2023/08/06 08:29:41;;;;;;;;;;;;;;;21.00;48.01;96833.94;4239206;27;5676;-64
2023/08/06 08:31:44;;;;;;;;;;;;;;;21.00;47.17;96835.81;4246279;27;5710;-63
2023/08/06 08:33:47;;;;;;;;;;;;;;;20.98;47.98;96833.41;4241365;27;5736;-64
2023/08/06 08:35:50;;;;;;;;;;;;;;;20.96;47.84;96840.91;4225343;28;5739;-64
2023/08/06 08:37:54;;;;;;;;;;;;;;;20.97;47.99;96850.59;4234193;27;5771;-63
2023/08/06 08:39:58;;;;;;;;;;;;;;;20.98;47.99;96862.16;4232473;27;6369;-62
2023/08/06 08:42:02;;;;;;;;;;;;;;;20.97;48.22;96855.16;4236938;27;5710;-63
2023/08/06 08:44:12;;;;;;;;;;;;;;;21.01;48.15;96858.94;4246433;27;5605;-63
2023/08/06 08:46:15;;;;;;;;;;;;;;;21.04;48.04;96858.41;4236079;27;5862;-63
2023/08/06 08:48:20;;;;;;;;;;;;;;;21.00;47.86;96846.56;4244993;27;5697;-63
2023/08/06 08:50:23;;;;;;;;;;;;;;;21.02;47.93;96860.56;4230047;27;5692;-63
2023/08/06 08:52:30;;;;;;;;;;;;;;;21.03;47.59;96846.03;4227698;28;5649;-65
2023/08/06 08:54:38;;;;;;;;;;;;;;;21.07;47.54;96842.59;4218445;28;5887;-63
2023/08/06 08:56:43;;;;;;;;;;;;;;;21.10;47.69;96843.94;4218227;28;5613;-64
2023/08/06 08:58:45;;;;;;;;;;;;;;;21.10;47.34;96846.63;4219776;28;5772;-63
2023/08/06 09:00:49;;;;;;;;;;;;;;;21.12;47.27;96849.88;4224441;28;5734;-64
2023/08/06 09:02:53;;;;;;;;;;;;;;;21.15;47.61;96852.03;4210947;28;5709;-64
2023/08/06 09:04:59;;;;;;;;;;;;;;;21.14;47.00;96850.41;4225371;28;6354;-65
2023/08/06 09:07:03;;;;;;;;;;;;;;;21.09;47.12;96861.97;4221525;28;5772;-64
2023/08/06 09:09:09;;;;;;;;;;;;;;;21.06;47.33;96864.34;4231971;28;6504;-62
2023/08/06 09:11:13;;;;;;;;;;;;;;;21.02;47.21;96860.56;4229860;28;6236;-61
2023/08/06 09:13:17;;;;;;;;;;;;;;;20.97;47.34;96873.97;4228948;28;5824;-62
2023/08/06 09:15:24;;;;;;;;;;;;;;;20.94;47.73;96873.38;4224874;28;5809;-62
2023/08/06 09:17:28;;;;;;;;;;;;;;;20.98;47.74;96864.84;4233569;28;5801;-63
2023/08/06 09:19:31;;;;;;;;;;;;;;;21.01;47.60;96869.69;4226469;28;5704;-63
2023/08/06 09:21:37;;;;;;;;;;;;;;;21.01;47.55;96875.06;4225677;27;5699;-63
2023/08/06 09:23:39;;;;;;;;;;;;;;;21.00;47.25;96886.88;4234129;28;5590;-63
2023/08/06 09:25:42;;;;;;;;;;;;;;;21.01;47.26;96883.94;4224694;28;5624;-63
2023/08/06 09:27:47;;;;;;;;;;;;;;;21.05;47.45;96892.28;4227669;28;5684;-63
2023/08/06 09:29:52;;;;;;;;;;;;;;;21.06;47.33;96899.28;4226030;28;5849;-63
2023/08/06 09:31:55;;;;;;;;;;;;;;;21.09;47.44;96896.09;4234484;28;5684;-63
2023/08/06 09:34:01;;;;;;;;;;;;;;;21.07;47.05;96896.34;4231028;28;6400;-63
2023/08/06 09:36:09;;;;;;;;;;;;;;;21.06;46.93;96892.03;4217492;28;5621;-63
2023/08/06 09:38:12;;;;;;;;;;;;;;;21.06;47.14;96900.09;4226131;28;5684;-63
2023/08/06 09:40:26;;;;;;;;;;;;;;;21.05;47.31;96897.66;4225137;28;5760;-63
2023/08/06 09:42:29;;;;;;;;;;;;;;;21.05;46.93;96892.28;4223805;28;5694;-63
2023/08/06 09:44:33;;;;;;;;;;;;;;;21.05;46.82;96897.66;4223850;28;5798;-63
2023/08/06 09:46:37;;;;;;;;;;;;;;;21.04;46.70;96886.09;4232695;28;7695;-63
2023/08/06 09:48:41;;;;;;;;;;;;;;;21.10;46.61;96884.28;4224652;28;5676;-64
2023/08/06 09:50:45;;;;;;;;;;;;;;;21.12;46.71;96888.31;4215654;28;6352;-63
2023/08/06 09:52:48;;;;;;;;;;;;;;;21.16;46.83;96883.22;4234039;28;5708;-63
2023/08/06 09:54:54;;;;;;;;;;;;;;;21.18;46.63;96881.13;4222934;28;5814;-62
2023/08/06 09:56:58;;;;;;;;;;;;;;;21.20;46.51;96882.47;4229009;28;5598;-63
2023/08/06 09:59:01;;;;;;;;;;;;;;;21.24;46.75;96874.69;4230503;28;5634;-66
2023/08/06 10:01:04;;;;;;;;;;;;;;;21.27;46.42;96884.94;4229406;28;5785;-64
2023/08/06 10:03:10;;;;;;;;;;;;;;;21.27;46.49;96887.63;4228874;28;5610;-63
2023/08/06 10:05:14;;;;;;;;;;;;;;;21.31;46.10;96886.06;4220039;28;5641;-63
2023/08/06 10:07:18;;;;;;;;;;;;;;;21.33;46.10;96885.81;4207294;28;5752;-63
2023/08/06 10:09:21;;;;;;;;;;;;;;;21.31;45.96;96886.06;4223583;28;5669;-64
2023/08/06 10:11:25;;;;;;;;;;;;;;;21.30;45.66;96889.81;4233436;28;5886;-64
2023/08/06 10:13:28;;;;;;;;;;;;;;;21.33;45.60;96886.63;4224935;28;5610;-63
2023/08/06 10:15:33;;;;;;;;;;;;;;;21.33;45.77;96894.69;4226017;28;5609;-63
2023/08/06 10:17:38;;;;;;;;;;;;;;;21.35;45.45;96895.22;4225498;28;5728;-63
2023/08/06 10:19:56;;;;;;;;;;;;;;;21.38;45.53;96891.19;4219527;28;9952;-63
2023/08/06 10:22:12;;;;;;;;;;;;;;;21.40;45.38;96897.94;4227972;28;5794;-64
2023/08/06 10:24:15;;;;;;;;;;;;;;;21.42;44.92;96895.81;4225593;28;5601;-64
2023/08/06 10:26:18;;;;;;;;;;;;;;;21.40;45.13;96906.00;4225217;28;5848;-63
2023/08/06 10:28:21;;;;;;;;;;;;;;;21.38;45.05;96907.34;4231807;28;5806;-63
2023/08/06 10:30:24;;;;;;;;;;;;;;;21.37;44.84;96906.53;4224044;28;5693;-62
2023/08/06 10:32:48;;;;;;;;;;;;;;;21.41;44.64;96921.09;4233528;28;5605;-62
2023/08/06 10:34:57;;;;;;;;;;;;;;;21.42;45.08;96911.97;4225500;28;5608;-62
2023/08/06 10:37:00;;;;;;;;;;;;;;;21.41;45.00;96904.97;4230081;28;5793;-62
2023/08/06 10:39:04;;;;;;;;;;;;;;;21.47;45.07;96917.34;4216116;28;5903;-62
2023/08/06 10:41:08;;;;;;;;;;;;;;;21.47;44.91;96920.03;4229457;28;5931;-62
2023/08/06 10:43:26;;;;;;;;;;;;;;;21.47;44.77;96927.31;4233392;28;5717;-62
2023/08/06 10:45:30;;;;;;;;;;;;;;;21.48;44.67;96924.34;4225243;28;5941;-63
2023/08/06 10:47:38;;;;;;;;;;;;;;;21.50;44.90;96921.41;4223846;28;5709;-62
2023/08/06 10:49:44;;;;;;;;;;;;;;;21.54;44.63;96933.28;4217618;28;5692;-63
2023/08/06 10:51:48;;;;;;;;;;;;;;;21.55;44.57;96917.94;4206531;28;5744;-62
2023/08/06 10:53:52;;;;;;;;;;;;;;;21.56;44.58;96922.25;4224641;28;5717;-62
2023/08/06 10:55:54;;;;;;;;;;;;;;;21.59;44.42;96919.03;4216160;28;5779;-62
2023/08/06 10:57:59;;;;;;;;;;;;;;;21.64;44.63;96921.78;4224749;28;8488;-62
2023/08/06 11:00:02;;;;;;;;;;;;;;;21.62;44.46;96926.59;4216479;28;5900;-63
2023/08/06 11:02:17;;;;;;;;;;;;;;;21.61;44.18;96933.03;4230828;28;5614;-62
2023/08/06 11:04:20;;;;;;;;;;;;;;;21.61;44.47;96928.47;4232939;28;5622;-62
2023/08/06 11:06:24;;;;;;;;;;;;;;;21.61;44.65;96919.59;4217832;28;5207;-62
2023/08/06 11:08:30;;;;;;;;;;;;;;;21.61;44.43;96928.47;4224230;28;5622;-62
2023/08/06 11:10:34;;;;;;;;;;;;;;;21.62;44.35;96918.50;4224286;28;5624;-62
2023/08/06 11:12:37;;;;;;;;;;;;;;;21.62;44.35;96929.28;4224705;28;5636;-62
2023/08/06 11:14:40;;;;;;;;;;;;;;;21.62;43.95;96934.66;4232890;28;5693;-62
2023/08/06 11:16:43;;;;;;;;;;;;;;;21.60;43.72;96932.22;4224678;28;5876;-62
2023/08/06 11:18:47;;;;;;;;;;;;;;;21.59;43.90;96935.19;4224140;28;6658;-62
2023/08/06 11:20:50;;;;;;;;;;;;;;;21.58;43.43;96938.94;4231439;28;8535;-63
2023/08/06 11:22:53;;;;;;;;;;;;;;;21.56;43.41;96939.19;4230129;28;5808;-63
2023/08/06 11:24:58;;;;;;;;;;;;;;;21.56;43.45;96944.59;4215741;28;5756;-62
2023/08/06 11:27:01;;;;;;;;;;;;;;;21.59;43.73;96951.31;4215842;28;5677;-62
2023/08/06 11:29:04;;;;;;;;;;;;;;;21.59;43.44;96945.94;4228248;28;5819;-62
2023/08/06 11:31:07;;;;;;;;;;;;;;;21.59;43.64;96962.88;4232235;28;5614;-62
2023/08/06 11:33:10;;;;;;;;;;;;;;;21.57;43.98;96958.84;4227794;28;5688;-62
2023/08/06 11:35:14;;;;;;;;;;;;;;;21.56;43.69;96954.53;4223701;28;5705;-63
2023/08/06 11:37:17;;;;;;;;;;;;;;;21.55;44.14;96959.09;4232683;28;5610;-62
2023/08/06 11:39:20;;;;;;;;;;;;;;;21.51;43.93;96956.09;4231748;28;5734;-62
2023/08/06 11:41:24;;;;;;;;;;;;;;;21.51;43.94;96956.09;4217587;28;5696;-62
2023/08/06 11:43:27;;;;;;;;;;;;;;;21.49;44.05;96944.78;4223458;28;5693;-62
2023/08/06 11:45:30;;;;;;;;;;;;;;;21.50;44.17;96954.47;4224852;28;5796;-62
2023/08/06 11:47:33;;;;;;;;;;;;;;;21.48;44.02;96956.63;4224081;28;5727;-62
2023/08/06 11:49:39;;;;;;;;;;;;;;;21.49;43.99;96957.44;4223821;28;5646;-62
2023/08/06 11:51:42;;;;;;;;;;;;;;;21.50;44.48;96954.47;4216889;28;5657;-62
2023/08/06 11:53:49;;;;;;;;;;;;;;;21.54;44.31;96954.00;4222608;28;5784;-62
2023/08/06 11:55:53;;;;;;;;;;;;;;;21.55;44.45;96950.22;4225352;28;5726;-61
2023/08/06 11:57:57;;;;;;;;;;;;;;;21.57;44.28;96942.69;4229498;28;5684;-62
2023/08/06 12:00:02;;;;;;;;;;;;;;;21.58;44.39;96937.06;4228193;28;5828;-63
2023/08/06 12:02:08;;;;;;;;;;;;;;;21.59;44.36;96946.75;4232789;28;5609;-62
2023/08/06 12:04:11;;;;;;;;;;;;;;;21.62;44.37;96950.78;4218948;28;5758;-62
2023/08/06 12:06:14;;;;;;;;;;;;;;;21.62;44.36;96950.78;4229810;28;5810;-62
2023/08/06 12:08:17;;;;;;;;;;;;;;;21.63;44.21;96942.50;4226443;28;5696;-63
2023/08/06 12:10:21;;;;;;;;;;;;;;;21.64;44.72;96946.78;4221930;28;5606;-63
2023/08/06 12:12:24;;;;;;;;;;;;;;;21.67;44.66;96950.84;4231229;28;5697;-63
2023/08/06 12:14:28;;;;;;;;;;;;;;;21.65;44.16;96947.59;4224135;28;6315;-63
2023/08/06 12:16:31;;;;;;;;;;;;;;;21.62;44.01;96956.16;4223979;28;5668;-63
2023/08/06 12:18:34;;;;;;;;;;;;;;;21.60;44.13;96953.75;4232458;28;5720;-63
2023/08/06 12:20:38;;;;;;;;;;;;;;;21.64;44.03;96951.38;4223801;28;5681;-63
2023/08/06 12:22:41;;;;;;;;;;;;;;;21.66;43.94;96943.84;4225214;28;5594;-63
2023/08/06 12:24:45;;;;;;;;;;;;;;;21.66;43.94;96944.66;4222664;28;6509;-63
2023/08/06 12:26:48;;;;;;;;;;;;;;;21.66;43.69;96951.91;4226548;28;5615;-63
2023/08/06 12:28:54;;;;;;;;;;;;;;;21.66;44.00;96952.72;4229131;28;5681;-63
2023/08/06 12:30:59;;;;;;;;;;;;;;;21.69;43.86;96954.06;4223808;28;5608;-63
2023/08/06 12:33:02;;;;;;;;;;;;;;;21.69;43.82;96951.38;4223112;28;5684;-62
2023/08/06 12:35:07;;;;;;;;;;;;;;;21.72;44.03;96953.53;4229154;28;5669;-63
2023/08/06 12:37:10;;;;;;;;;;;;;;;21.72;44.12;96957.03;4221855;28;5609;-63
2023/08/06 12:39:13;;;;;;;;;;;;;;;21.73;43.90;96963.22;4232419;28;5705;-63
2023/08/06 12:41:16;;;;;;;;;;;;;;;21.68;44.30;96968.59;4235244;28;5614;-64
2023/08/06 12:43:19;;;;;;;;;;;;;;;21.66;44.09;96957.28;4235081;28;5684;-63
2023/08/06 12:45:22;;;;;;;;;;;;;;;21.65;43.95;96961.06;4235337;28;5610;-63
2023/08/06 12:47:26;;;;;;;;;;;;;;;21.66;43.95;96959.97;4234271;28;5699;-63
2023/08/06 12:49:28;;;;;;;;;;;;;;;21.66;43.67;96963.47;4227650;28;5755;-63
2023/08/06 12:51:33;;;;;;;;;;;;;;;21.70;43.98;96963.75;4235025;28;5606;-63
2023/08/06 12:53:36;;;;;;;;;;;;;;;21.72;43.72;96961.63;4226468;28;5667;-63
2023/08/06 12:55:40;;;;;;;;;;;;;;;21.73;43.97;96965.94;4225728;28;5625;-63
2023/08/06 12:57:43;;;;;;;;;;;;;;;21.74;43.74;96964.84;4219794;28;5860;-64
2023/08/06 13:00:00;;;;;;;;;;;;;;;21.75;43.85;96964.63;4226584;28;5729;-63
2023/08/06 13:02:03;;;;;;;;;;;;;;;21.75;43.95;96963.81;4235242;28;5583;-63
2023/08/06 13:04:08;;;;;;;;;;;;;;;21.75;43.95;96961.13;4229257;28;5729;-63
2023/08/06 13:06:23;;;;;;;;;;;;;;;21.75;44.07;96967.31;4218031;28;5703;-63
2023/08/06 13:08:26;;;;;;;;;;;;;;;21.74;44.40;96949.53;4226361;28;5700;-63